< < Back
Terminal Aerodrome Forecast


Current Version              Previous Versions:   1  2  3  4  5  6  7  8  9  

Terminal Aerodrome Forecast

741
FTUS42 KGSP 231124
TAFGSP
TAF
KGSP 231124Z 2312/2412 04003KT P6SM FEW250
     FM231700 12005KT P6SM SKC=

Latest METAR

370
SAUS70 KWBC 240500 RRE
MTRGSP
METAR KGSP 240453Z AUTO 00000KT 10SM CLR 17/10 A3035 RMK AO2 SLP268
T01670100 402610117


USA.gov is the U.S. government's official web portal to all federal, state and local government web resources and services.